Time;durP1;ratioP1;P1;durP2;ratioP2;P2;SDS_P1;SDS_P2;PMS_P1;PMS_P2;Temp;Humidity;BMP_temperature;BMP_pressure;BME280_temperature;BME280_humidity;BME280_pressure;Samples;Min_cycle;Max_cycle;Signal;HPM_P1;HPM_P2
2021/11/29 00:00:46;;;;;;;3.95;2.55;;;6.70;96.70;;;;;;4852092;29;20055;-74
2021/11/29 00:03:25;;;;;;;3.92;2.40;;;6.70;96.70;;;;;;4857378;29;20052;-74
2021/11/29 00:05:54;;;;;;;4.45;2.80;;;6.60;96.70;;;;;;4884160;29;20508;-73
2021/11/29 00:08:22;;;;;;;4.57;2.85;;;6.60;96.70;;;;;;4891525;29;20441;-74
2021/11/29 00:10:50;;;;;;;5.07;2.80;;;6.50;96.70;;;;;;4886047;29;20083;-73
2021/11/29 00:13:20;;;;;;;4.05;2.67;;;6.50;96.70;;;;;;4872433;29;20140;-74
2021/11/29 00:15:49;;;;;;;6.20;3.22;;;6.50;96.70;;;;;;4871623;29;20037;-73
2021/11/29 00:18:17;;;;;;;3.67;2.60;;;6.50;96.70;;;;;;4876381;29;20045;-74
2021/11/29 00:20:46;;;;;;;3.70;2.70;;;6.40;96.70;;;;;;4868229;29;20511;-73
2021/11/29 00:23:14;;;;;;;4.03;2.55;;;6.50;96.70;;;;;;4891400;29;20048;-74
2021/11/29 00:25:43;;;;;;;5.43;2.80;;;6.50;96.70;;;;;;4878742;29;20574;-74
2021/11/29 00:28:12;;;;;;;6.05;3.85;;;6.50;96.70;;;;;;4866670;29;20481;-74
2021/11/29 00:30:42;;;;;;;3.75;2.63;;;6.60;96.70;;;;;;4885521;29;20465;-74
2021/11/29 00:33:11;;;;;;;5.03;2.85;;;6.60;96.70;;;;;;4887181;29;20105;-74
2021/11/29 00:35:39;;;;;;;3.53;2.67;;;6.60;96.70;;;;;;4886946;29;20101;-74
2021/11/29 00:38:09;;;;;;;4.97;2.50;;;6.60;96.70;;;;;;4871732;29;20058;-73
2021/11/29 00:40:39;;;;;;;4.50;2.80;;;6.60;96.70;;;;;;4884199;29;20037;-74
2021/11/29 00:43:07;;;;;;;3.92;2.50;;;6.60;96.70;;;;;;4857946;29;20483;-74
2021/11/29 00:45:35;;;;;;;5.60;2.63;;;6.60;96.70;;;;;;4869911;29;20048;-74
2021/11/29 00:48:05;;;;;;;4.22;2.50;;;6.60;96.70;;;;;;4888126;29;20524;-74
2021/11/29 00:50:37;;;;;;;5.13;2.90;;;6.60;96.70;;;;;;4883644;29;20464;-74
2021/11/29 00:53:07;;;;;;;3.25;2.47;;;6.70;96.70;;;;;;4868051;29;20147;-74
2021/11/29 00:55:36;;;;;;;3.40;2.60;;;6.60;96.70;;;;;;4884624;29;20484;-74
2021/11/29 00:58:05;;;;;;;4.28;2.80;;;6.60;96.70;;;;;;4869002;29;20055;-73
2021/11/29 01:00:34;;;;;;;5.28;3.00;;;6.60;96.70;;;;;;4884379;29;20059;-74
2021/11/29 01:03:04;;;;;;;4.00;2.55;;;6.50;96.70;;;;;;4888874;29;20044;-74
2021/11/29 01:05:33;;;;;;;3.60;2.38;;;6.60;96.70;;;;;;4882528;29;20048;-74
2021/11/29 01:08:01;;;;;;;5.10;2.60;;;6.70;96.70;;;;;;4868222;29;20044;-74
2021/11/29 01:10:30;;;;;;;4.28;2.70;;;6.70;96.70;;;;;;4888425;29;20080;-74
2021/11/29 01:12:58;;;;;;;3.33;2.40;;;6.80;96.70;;;;;;4874686;29;20410;-74
2021/11/29 01:15:30;;;;;;;4.15;2.60;;;6.80;96.70;;;;;;4887482;29;20060;-73
2021/11/29 01:18:00;;;;;;;5.05;2.85;;;6.70;96.70;;;;;;4887600;29;20072;-74
2021/11/29 01:20:30;;;;;;;4.47;2.35;;;6.80;96.70;;;;;;4891534;29;20075;-74
2021/11/29 01:22:58;;;;;;;4.65;2.60;;;6.80;96.70;;;;;;4889370;29;20071;-73
2021/11/29 01:25:26;;;;;;;3.60;2.90;;;6.90;96.70;;;;;;4874307;29;20124;-73
2021/11/29 01:27:55;;;;;;;5.05;2.95;;;6.80;96.70;;;;;;4888533;29;20092;-74
2021/11/29 01:30:23;;;;;;;4.28;2.78;;;6.80;96.70;;;;;;4890726;29;20055;-74
2021/11/29 01:32:51;;;;;;;3.53;2.97;;;6.80;96.70;;;;;;4888838;29;20048;-74
2021/11/29 01:35:19;;;;;;;5.53;3.30;;;6.90;96.70;;;;;;4888996;29;20436;-73
2021/11/29 01:37:49;;;;;;;4.45;3.00;;;6.90;96.70;;;;;;4889022;29;20123;-74
2021/11/29 01:40:18;;;;;;;3.53;2.33;;;7.00;96.70;;;;;;4876683;29;20432;-74
2021/11/29 01:42:58;;;;;;;5.18;2.88;;;7.00;96.70;;;;;;4892483;29;20065;-74
2021/11/29 01:45:27;;;;;;;3.60;2.90;;;6.90;96.70;;;;;;4871530;29;20108;-74
2021/11/29 01:47:55;;;;;;;6.00;2.95;;;6.80;96.70;;;;;;4875243;29;20279;-74
2021/11/29 01:50:24;;;;;;;4.20;2.70;;;6.80;96.70;;;;;;4874471;29;20049;-73
2021/11/29 01:52:54;;;;;;;4.07;3.13;;;6.90;96.70;;;;;;4873696;29;20548;-74
2021/11/29 01:55:23;;;;;;;4.55;2.83;;;6.80;96.70;;;;;;4878026;29;20132;-74
2021/11/29 01:57:52;;;;;;;3.20;2.55;;;6.90;96.70;;;;;;4889949;29;20743;-74
2021/11/29 02:00:25;;;;;;;3.60;2.65;;;6.70;96.70;;;;;;4893649;29;20108;-74
2021/11/29 02:02:55;;;;;;;5.78;2.58;;;6.70;96.70;;;;;;4883217;29;20056;-74
2021/11/29 02:05:25;;;;;;;3.33;2.63;;;6.70;96.70;;;;;;4887821;29;20053;-74
2021/11/29 02:07:55;;;;;;;4.28;3.10;;;6.80;96.70;;;;;;4887776;29;20079;-74
2021/11/29 02:10:24;;;;;;;3.15;2.50;;;6.80;96.70;;;;;;4889057;29;20063;-74
2021/11/29 02:12:53;;;;;;;4.53;2.50;;;6.80;96.70;;;;;;4877032;29;20451;-74
2021/11/29 02:15:21;;;;;;;4.22;2.95;;;6.80;96.70;;;;;;4870844;29;20419;-74
2021/11/29 02:17:50;;;;;;;4.00;2.53;;;6.90;96.70;;;;;;4889834;29;20131;-74
2021/11/29 02:20:19;;;;;;;4.03;2.50;;;7.00;96.70;;;;;;4891894;29;20294;-74
2021/11/29 02:22:50;;;;;;;3.63;2.60;;;7.00;96.70;;;;;;4891943;29;20128;-74
2021/11/29 02:25:19;;;;;;;2.92;2.38;;;7.00;96.70;;;;;;4893348;29;20052;-74
2021/11/29 02:27:50;;;;;;;3.22;2.30;;;7.00;96.70;;;;;;4888436;29;20430;-74
2021/11/29 02:30:22;;;;;;;4.43;2.63;;;6.90;96.70;;;;;;4890510;29;20508;-74
2021/11/29 02:32:51;;;;;;;5.40;2.88;;;6.90;96.70;;;;;;4892275;29;20041;-74
2021/11/29 02:35:21;;;;;;;3.30;2.72;;;7.00;96.70;;;;;;4861239;29;20120;-74
2021/11/29 02:37:52;;;;;;;3.15;2.38;;;7.00;96.70;;;;;;4888210;29;20052;-74
2021/11/29 02:40:20;;;;;;;4.28;2.63;;;6.90;96.70;;;;;;4872031;29;20060;-74
2021/11/29 02:42:48;;;;;;;3.92;2.80;;;6.80;96.70;;;;;;4892877;29;20682;-75
2021/11/29 02:45:17;;;;;;;3.53;2.60;;;6.90;96.70;;;;;;4875546;29;20548;-74
2021/11/29 02:47:45;;;;;;;4.28;2.83;;;6.90;96.70;;;;;;4884828;29;20524;-74
2021/11/29 02:50:14;;;;;;;3.42;2.65;;;6.90;96.70;;;;;;4871157;29;20041;-74
2021/11/29 02:52:42;;;;;;;4.75;3.35;;;6.80;96.70;;;;;;4889051;29;20327;-74
2021/11/29 02:55:13;;;;;;;4.38;2.70;;;6.80;96.70;;;;;;4873134;29;20095;-74
2021/11/29 02:57:41;;;;;;;4.82;2.70;;;6.80;96.70;;;;;;4875109;29;20044;-74
2021/11/29 03:00:11;;;;;;;4.45;2.33;;;6.80;96.70;;;;;;4871624;29;20243;-74
2021/11/29 03:02:39;;;;;;;3.10;2.40;;;6.80;96.70;;;;;;4859830;29;20105;-74
2021/11/29 03:05:09;;;;;;;4.43;2.72;;;6.90;96.70;;;;;;4872451;29;20091;-73
2021/11/29 03:07:37;;;;;;;4.05;2.38;;;6.80;96.70;;;;;;4887381;29;20048;-74
2021/11/29 03:10:06;;;;;;;3.65;2.60;;;6.70;96.70;;;;;;4872157;29;20045;-73
2021/11/29 03:12:36;;;;;;;5.50;2.80;;;6.60;96.70;;;;;;4943862;23;20067;-73
2021/11/29 03:15:05;;;;;;;2.67;2.03;;;6.60;96.70;;;;;;4910062;29;20108;-73
2021/11/29 03:17:33;;;;;;;3.53;2.58;;;6.70;96.70;;;;;;4917571;29;20110;-73
2021/11/29 03:20:01;;;;;;;4.18;2.85;;;6.60;96.70;;;;;;4917299;29;20040;-73
2021/11/29 03:22:29;;;;;;;3.88;2.47;;;6.50;96.70;;;;;;4900049;29;20223;-73
2021/11/29 03:25:02;;;;;;;5.97;3.60;;;6.50;96.70;;;;;;4904089;29;20145;-73
2021/11/29 03:27:30;;;;;;;10.27;6.18;;;6.40;96.70;;;;;;4900788;29;20039;-73
2021/11/29 03:29:59;;;;;;;3.67;2.92;;;6.40;96.70;;;;;;4916876;29;20043;-73
2021/11/29 03:32:27;;;;;;;5.50;2.90;;;6.40;96.70;;;;;;4900780;29;20498;-73
2021/11/29 03:34:55;;;;;;;4.05;2.60;;;6.30;96.70;;;;;;4905481;29;20048;-74
2021/11/29 03:37:23;;;;;;;4.20;2.38;;;6.40;96.70;;;;;;4904677;29;20042;-73
2021/11/29 03:39:51;;;;;;;3.10;2.45;;;6.30;96.70;;;;;;4905799;29;20063;-73
2021/11/29 03:42:19;;;;;;;6.55;2.65;;;6.30;96.70;;;;;;4899475;29;20043;-74
2021/11/29 03:44:47;;;;;;;4.25;2.60;;;6.30;96.70;;;;;;4899570;29;20083;-73
2021/11/29 03:47:17;;;;;;;4.43;3.22;;;6.20;96.70;;;;;;4901024;29;20460;-73
2021/11/29 03:49:45;;;;;;;7.18;3.40;;;6.20;96.70;;;;;;4896084;29;20044;-73
2021/11/29 03:52:13;;;;;;;5.47;3.05;;;6.20;96.70;;;;;;4899803;29;20047;-73
2021/11/29 03:54:41;;;;;;;3.80;2.30;;;6.20;96.70;;;;;;4920173;29;20095;-73
2021/11/29 03:57:09;;;;;;;4.18;2.63;;;6.20;96.70;;;;;;4900045;29;20054;-73
2021/11/29 03:59:37;;;;;;;3.95;2.35;;;6.20;96.70;;;;;;4915371;29;20503;-73
2021/11/29 04:02:05;;;;;;;3.63;2.30;;;6.20;96.70;;;;;;4898836;29;20048;-73
2021/11/29 04:04:35;;;;;;;4.28;2.80;;;6.20;96.70;;;;;;4896796;29;20033;-73
2021/11/29 04:07:03;;;;;;;2.80;2.30;;;6.10;96.70;;;;;;4917424;29;20051;-74
2021/11/29 04:09:31;;;;;;;3.20;2.08;;;6.10;96.70;;;;;;4899474;29;20087;-74
2021/11/29 04:11:59;;;;;;;3.10;2.35;;;6.10;96.70;;;;;;4920389;29;20242;-73
2021/11/29 04:14:27;;;;;;;3.55;1.90;;;6.10;96.70;;;;;;4903593;29;20060;-73
2021/11/29 04:16:55;;;;;;;2.90;2.28;;;6.00;96.70;;;;;;4908007;29;20046;-74
2021/11/29 04:19:23;;;;;;;3.70;2.65;;;5.90;96.70;;;;;;4916639;29;20103;-73
2021/11/29 04:21:54;;;;;;;10.65;3.88;;;5.90;96.70;;;;;;4895660;29;20419;-73
2021/11/29 04:24:24;;;;;;;4.70;2.40;;;5.90;96.70;;;;;;4900085;29;20156;-73
2021/11/29 04:26:53;;;;;;;3.28;2.30;;;6.00;96.70;;;;;;4900060;29;20055;-74
2021/11/29 04:29:27;;;;;;;3.20;2.40;;;6.00;96.70;;;;;;4899325;29;20075;-73
2021/11/29 04:31:55;;;;;;;3.38;2.33;;;6.00;96.70;;;;;;4904610;29;20051;-73
2021/11/29 04:34:23;;;;;;;3.40;2.53;;;5.90;96.70;;;;;;4913219;29;20044;-73
2021/11/29 04:36:53;;;;;;;4.20;2.30;;;5.90;96.70;;;;;;4910268;29;20044;-74
2021/11/29 04:39:25;;;;;;;3.90;2.72;;;5.90;96.70;;;;;;4908046;29;20056;-74
2021/11/29 04:41:53;;;;;;;3.33;2.20;;;6.00;96.70;;;;;;4919509;29;20328;-74
2021/11/29 04:44:20;;;;;;;3.00;2.28;;;6.00;96.70;;;;;;4904556;29;20534;-74
2021/11/29 04:46:48;;;;;;;4.43;2.67;;;6.00;96.70;;;;;;4919005;29;20224;-74
2021/11/29 04:49:17;;;;;;;2.88;2.13;;;6.00;96.70;;;;;;4907854;29;20039;-74
2021/11/29 04:51:45;;;;;;;3.03;2.00;;;6.10;96.70;;;;;;4902433;29;20048;-73
2021/11/29 04:54:15;;;;;;;3.05;2.30;;;6.00;96.70;;;;;;4922655;29;20043;-74
2021/11/29 04:56:43;;;;;;;4.00;2.17;;;5.90;96.70;;;;;;4904046;29;20084;-74
2021/11/29 04:59:11;;;;;;;3.72;2.35;;;5.90;96.70;;;;;;4918397;29;20044;-74
2021/11/29 05:01:40;;;;;;;2.85;2.05;;;6.00;96.70;;;;;;4892175;29;20051;-73
2021/11/29 05:04:08;;;;;;;3.42;2.40;;;5.90;96.70;;;;;;4921535;29;20067;-74
2021/11/29 05:06:37;;;;;;;2.38;1.90;;;6.00;96.70;;;;;;4898195;29;20528;-73
2021/11/29 05:09:06;;;;;;;3.22;2.20;;;5.90;96.70;;;;;;4901619;29;20431;-74
2021/11/29 05:11:36;;;;;;;3.53;2.40;;;5.90;96.70;;;;;;4923570;29;20059;-74
2021/11/29 05:14:04;;;;;;;2.88;1.88;;;5.90;96.70;;;;;;4902976;29;20130;-74
2021/11/29 05:16:32;;;;;;;3.05;2.10;;;6.00;96.70;;;;;;4918518;29;20071;-74
2021/11/29 05:19:00;;;;;;;2.88;2.15;;;6.00;96.70;;;;;;4903594;29;20052;-74
2021/11/29 05:21:28;;;;;;;3.17;2.05;;;5.90;96.70;;;;;;4902060;29;20071;-74
2021/11/29 05:23:56;;;;;;;4.22;2.60;;;6.00;96.70;;;;;;4900154;29;20119;-74
2021/11/29 05:26:26;;;;;;;3.03;2.35;;;6.00;96.70;;;;;;4906287;29;20423;-74
2021/11/29 05:28:57;;;;;;;2.90;2.20;;;6.00;96.70;;;;;;4909277;29;20052;-74
2021/11/29 05:31:25;;;;;;;3.65;2.20;;;5.90;96.70;;;;;;4903449;29;20063;-74
2021/11/29 05:33:53;;;;;;;2.55;1.92;;;6.00;96.70;;;;;;4893867;29;20136;-74
2021/11/29 05:36:21;;;;;;;3.53;2.55;;;5.90;96.70;;;;;;4905261;29;20053;-74
2021/11/29 05:38:49;;;;;;;3.35;2.47;;;5.80;96.70;;;;;;4906588;29;20054;-74
2021/11/29 05:41:17;;;;;;;7.90;4.75;;;5.90;96.70;;;;;;4900257;29;20059;-74
2021/11/29 05:43:45;;;;;;;5.47;3.50;;;5.80;96.70;;;;;;4894662;29;20521;-74
2021/11/29 05:46:18;;;;;;;4.68;3.00;;;5.80;96.70;;;;;;4902815;29;20150;-74
2021/11/29 05:48:47;;;;;;;4.82;3.10;;;5.70;96.70;;;;;;4922575;29;20044;-74
2021/11/29 05:51:15;;;;;;;4.93;2.92;;;5.80;96.70;;;;;;4898630;29;20232;-74
2021/11/29 05:53:43;;;;;;;4.65;2.63;;;5.80;96.70;;;;;;4916023;29;20047;-74
2021/11/29 05:56:11;;;;;;;4.00;2.63;;;5.80;96.70;;;;;;4918553;29;20040;-74
2021/11/29 05:58:39;;;;;;;3.17;2.17;;;5.70;96.70;;;;;;4906581;29;20384;-74
2021/11/29 06:01:07;;;;;;;4.50;2.15;;;5.80;96.70;;;;;;4920142;29;21054;-74
2021/11/29 06:03:37;;;;;;;3.15;2.28;;;5.80;96.70;;;;;;4903207;29;20123;-74
2021/11/29 06:06:05;;;;;;;4.15;2.00;;;5.80;96.70;;;;;;4923250;29;20066;-74
2021/11/29 06:08:39;;;;;;;3.10;1.90;;;5.80;96.70;;;;;;4906134;29;20055;-74
2021/11/29 06:11:07;;;;;;;2.78;2.00;;;5.70;96.70;;;;;;4906826;29;20568;-74
2021/11/29 06:13:35;;;;;;;3.65;2.05;;;5.70;96.70;;;;;;4915365;29;20062;-74
2021/11/29 06:16:03;;;;;;;2.78;2.03;;;5.70;96.70;;;;;;4906438;29;20482;-74
2021/11/29 06:18:33;;;;;;;4.80;2.25;;;5.70;96.70;;;;;;4917509;29;20063;-73
2021/11/29 06:21:02;;;;;;;2.78;2.00;;;5.70;96.70;;;;;;4902152;29;20421;-74
2021/11/29 06:23:32;;;;;;;2.42;1.83;;;5.60;96.70;;;;;;4897542;29;20127;-74
2021/11/29 06:26:00;;;;;;;4.82;2.42;;;5.70;96.70;;;;;;4900813;29;20643;-74
2021/11/29 06:28:29;;;;;;;5.00;2.45;;;5.70;96.70;;;;;;4903268;29;20215;-74
2021/11/29 06:30:58;;;;;;;3.75;2.10;;;5.60;96.70;;;;;;4922121;29;20048;-74
2021/11/29 06:33:26;;;;;;;3.92;2.15;;;5.70;96.70;;;;;;4892788;29;20071;-74
2021/11/29 06:35:57;;;;;;;3.53;2.25;;;5.70;96.70;;;;;;4901671;29;20047;-74
2021/11/29 06:38:27;;;;;;;4.30;2.92;;;5.60;96.70;;;;;;4900274;29;20418;-74
2021/11/29 06:40:57;;;;;;;4.78;3.17;;;5.60;96.70;;;;;;4905703;29;20032;-74
2021/11/29 06:43:26;;;;;;;3.42;2.47;;;5.60;96.70;;;;;;4918773;29;20036;-74
2021/11/29 06:45:55;;;;;;;5.70;2.80;;;5.60;96.70;;;;;;4919503;29;20052;-74
2021/11/29 06:48:23;;;;;;;4.85;3.22;;;5.60;96.70;;;;;;4902084;29;20059;-74
2021/11/29 06:50:53;;;;;;;6.25;3.40;;;5.60;96.70;;;;;;4899573;29;20075;-74
2021/11/29 06:53:22;;;;;;;7.10;3.42;;;5.70;96.70;;;;;;4903813;29;20055;-74
2021/11/29 06:55:54;;;;;;;6.65;3.72;;;5.70;96.70;;;;;;4922880;29;20047;-74
2021/11/29 06:58:22;;;;;;;7.05;3.50;;;5.70;96.70;;;;;;4899780;29;20497;-74
2021/11/29 07:00:50;;;;;;;4.78;3.17;;;5.70;96.70;;;;;;4898815;29;20044;-75
2021/11/29 07:03:19;;;;;;;4.85;3.20;;;5.60;96.70;;;;;;4905997;29;20485;-74
2021/11/29 07:05:48;;;;;;;5.97;3.13;;;5.60;96.70;;;;;;4900873;29;20044;-74
2021/11/29 07:08:16;;;;;;;4.68;3.08;;;5.50;96.70;;;;;;4898406;29;20047;-74
2021/11/29 07:10:45;;;;;;;5.25;2.90;;;5.60;96.70;;;;;;4905425;29;20045;-74
2021/11/29 07:13:15;;;;;;;4.63;2.75;;;5.70;96.70;;;;;;4917707;29;20724;-74
2021/11/29 07:15:46;;;;;;;5.43;3.28;;;5.70;96.70;;;;;;4903232;29;20384;-74
2021/11/29 07:18:15;;;;;;;5.85;3.30;;;5.70;96.70;;;;;;4923283;29;20701;-74
2021/11/29 07:20:44;;;;;;;6.75;2.88;;;5.70;96.70;;;;;;4918418;29;20413;-74
2021/11/29 07:23:12;;;;;;;8.50;3.70;;;5.80;96.70;;;;;;4900496;29;20103;-74
2021/11/29 07:25:41;;;;;;;3.47;2.75;;;5.80;96.70;;;;;;4917492;29;20455;-74
2021/11/29 07:28:09;;;;;;;4.63;2.97;;;5.80;96.70;;;;;;4918167;29;20058;-74
2021/11/29 07:30:39;;;;;;;4.22;3.00;;;5.90;96.70;;;;;;4908445;29;20134;-74
2021/11/29 07:33:08;;;;;;;6.32;2.55;;;6.10;96.70;;;;;;4900528;29;20056;-74
2021/11/29 07:35:36;;;;;;;5.28;3.70;;;6.10;96.70;;;;;;4913472;29;20122;-74
2021/11/29 07:38:05;;;;;;;6.07;3.00;;;6.10;96.70;;;;;;4920163;29;20214;-74
2021/11/29 07:40:33;;;;;;;4.40;3.22;;;6.00;96.70;;;;;;4904839;29;20045;-75
2021/11/29 07:43:05;;;;;;;4.90;3.13;;;6.10;96.70;;;;;;4922905;29;20051;-73
2021/11/29 07:45:34;;;;;;;6.13;3.92;;;6.20;96.70;;;;;;4902817;29;20035;-74
2021/11/29 07:48:05;;;;;;;5.40;3.50;;;6.20;96.70;;;;;;4906534;29;20054;-74
2021/11/29 07:50:34;;;;;;;6.38;3.67;;;6.30;96.70;;;;;;4921833;29;20100;-75
2021/11/29 07:53:02;;;;;;;5.88;3.65;;;6.40;96.70;;;;;;4919658;29;20040;-74
2021/11/29 07:55:31;;;;;;;4.63;3.10;;;6.40;96.70;;;;;;4901434;29;20079;-75
2021/11/29 07:58:02;;;;;;;6.70;3.65;;;6.40;96.70;;;;;;4896470;29;20056;-74
2021/11/29 08:00:32;;;;;;;5.88;3.72;;;6.40;96.70;;;;;;4900871;29;20509;-74
2021/11/29 08:03:05;;;;;;;6.85;3.78;;;6.40;96.70;;;;;;4921330;29;20410;-74
2021/11/29 08:05:39;;;;;;;6.20;3.70;;;6.50;96.70;;;;;;4897784;29;20052;-75
2021/11/29 08:08:08;;;;;;;7.22;4.10;;;6.50;96.70;;;;;;4900663;29;20094;-74
2021/11/29 08:10:38;;;;;;;7.70;4.18;;;6.50;96.70;;;;;;4899110;29;20048;-74
2021/11/29 08:13:08;;;;;;;5.55;3.65;;;6.40;96.70;;;;;;4917677;28;20501;-74
2021/11/29 08:15:37;;;;;;;4.68;3.17;;;6.60;96.70;;;;;;4890292;29;20569;-73
2021/11/29 08:18:08;;;;;;;5.72;3.53;;;6.60;96.70;;;;;;4917269;29;20044;-74
2021/11/29 08:20:37;;;;;;;6.65;3.38;;;6.60;96.70;;;;;;4906322;29;20110;-73
2021/11/29 08:23:05;;;;;;;4.40;3.10;;;6.60;96.70;;;;;;4920794;29;20035;-74
2021/11/29 08:25:34;;;;;;;5.72;3.00;;;6.70;96.70;;;;;;4899078;29;20055;-74
2021/11/29 08:28:03;;;;;;;4.03;2.63;;;6.80;96.70;;;;;;4925220;29;20051;-74
2021/11/29 08:30:31;;;;;;;2.90;2.38;;;6.80;96.70;;;;;;4919033;29;20126;-73
2021/11/29 08:32:59;;;;;;;3.35;2.13;;;6.90;96.70;;;;;;4912169;29;20193;-74
2021/11/29 08:35:29;;;;;;;3.20;2.00;;;6.90;96.70;;;;;;4904078;29;20065;-74
2021/11/29 08:37:58;;;;;;;3.53;2.10;;;7.10;96.70;;;;;;4907666;29;20044;-73
2021/11/29 08:40:29;;;;;;;2.95;1.67;;;7.10;96.70;;;;;;4899633;29;20059;-72
2021/11/29 08:42:59;;;;;;;3.22;2.30;;;7.20;96.70;;;;;;4903555;29;20062;-72
2021/11/29 08:45:28;;;;;;;4.47;2.28;;;7.20;96.70;;;;;;4896563;29;20720;-71
2021/11/29 08:47:57;;;;;;;3.42;2.50;;;7.30;96.70;;;;;;4918683;29;20040;-72
2021/11/29 08:50:25;;;;;;;5.00;2.55;;;7.40;96.70;;;;;;4902602;29;20501;-72
2021/11/29 08:53:02;;;;;;;3.80;2.42;;;7.40;96.70;;;;;;4913936;29;20039;-74
2021/11/29 08:55:31;;;;;;;3.15;2.08;;;7.30;96.70;;;;;;4917689;29;20111;-75
2021/11/29 08:58:00;;;;;;;3.95;2.00;;;7.40;96.70;;;;;;4916612;29;20044;-75
2021/11/29 09:00:28;;;;;;;4.55;2.35;;;7.50;96.70;;;;;;4920522;29;20047;-75
2021/11/29 09:02:59;;;;;;;4.68;2.30;;;7.60;96.70;;;;;;4903113;29;20040;-73
2021/11/29 09:05:27;;;;;;;3.40;2.22;;;7.80;96.70;;;;;;4914169;29;20052;-74
2021/11/29 09:07:56;;;;;;;3.55;2.35;;;7.80;96.70;;;;;;4900535;29;20174;-75
2021/11/29 09:10:27;;;;;;;2.85;2.15;;;7.80;96.70;;;;;;4900073;29;20425;-76
2021/11/29 09:12:55;;;;;;;4.35;2.28;;;7.80;96.70;;;;;;4901830;29;20070;-75
2021/11/29 09:15:28;;;;;;;3.95;2.50;;;7.80;96.70;;;;;;4897368;29;20036;-76
2021/11/29 09:17:58;;;;;;;3.22;2.38;;;7.90;96.70;;;;;;4883478;29;20079;-75
2021/11/29 09:20:28;;;;;;;5.13;2.97;;;8.10;96.70;;;;;;4901433;29;20036;-74
2021/11/29 09:22:57;;;;;;;3.63;2.50;;;8.10;96.70;;;;;;4898450;29;20466;-75
2021/11/29 09:25:26;;;;;;;4.72;2.70;;;8.20;96.70;;;;;;4887979;29;20103;-75
2021/11/29 09:27:56;;;;;;;4.53;2.60;;;8.20;96.70;;;;;;4900816;29;20532;-76
2021/11/29 09:30:24;;;;;;;5.20;2.60;;;8.30;96.70;;;;;;4909290;29;20472;-74
2021/11/29 09:32:53;;;;;;;4.57;2.28;;;8.30;96.70;;;;;;4915464;29;20056;-75
2021/11/29 09:35:21;;;;;;;5.22;2.20;;;8.40;96.70;;;;;;4916422;29;20398;-75
2021/11/29 09:37:50;;;;;;;3.92;2.55;;;8.40;96.70;;;;;;4926250;29;20043;-75
2021/11/29 09:40:21;;;;;;;4.18;2.42;;;8.40;96.70;;;;;;4917536;29;20501;-75
2021/11/29 09:42:52;;;;;;;5.18;2.22;;;8.50;96.70;;;;;;4907847;29;20040;-76
2021/11/29 09:45:23;;;;;;;4.07;2.30;;;8.50;96.70;;;;;;4921994;29;20052;-75
2021/11/29 09:47:52;;;;;;;4.72;2.13;;;8.50;96.70;;;;;;4906327;29;20052;-75
2021/11/29 09:50:21;;;;;;;4.93;2.35;;;8.50;96.70;;;;;;4903285;29;20142;-76
2021/11/29 09:52:50;;;;;;;5.05;2.63;;;8.60;96.70;;;;;;4887945;29;20055;-75
2021/11/29 09:55:24;;;;;;;7.63;2.90;;;8.70;96.70;;;;;;4902623;29;20047;-76
2021/11/29 09:57:55;;;;;;;6.70;3.22;;;8.80;96.70;;;;;;4917231;29;20510;-75
2021/11/29 10:00:25;;;;;;;8.15;3.00;;;9.00;96.70;;;;;;4882254;29;20434;-76
2021/11/29 10:02:54;;;;;;;6.68;3.00;;;9.00;96.70;;;;;;4896675;29;20044;-76
2021/11/29 10:05:24;;;;;;;7.88;3.13;;;9.10;96.70;;;;;;4891856;29;20043;-76
2021/11/29 10:07:53;;;;;;;6.90;3.30;;;9.10;96.70;;;;;;4906850;29;20384;-76
2021/11/29 10:10:25;;;;;;;5.68;2.83;;;9.20;96.70;;;;;;4899323;29;20036;-75
2021/11/29 10:13:03;;;;;;;8.80;2.88;;;9.30;96.70;;;;;;4901016;29;20643;-75
2021/11/29 10:15:32;;;;;;;6.45;2.50;;;9.30;96.70;;;;;;4919901;29;20052;-75
2021/11/29 10:18:09;;;;;;;5.78;2.72;;;9.40;96.70;;;;;;4918017;29;20056;-75
2021/11/29 10:20:55;;;;;;;3.75;2.28;;;9.50;96.70;;;;;;4923161;29;20510;-76
2021/11/29 10:23:27;;;;;;;5.72;2.58;;;9.60;96.70;;;;;;4899131;29;20140;-75
2021/11/29 10:25:56;;;;;;;4.10;2.20;;;9.70;96.70;;;;;;4884679;29;20521;-75
2021/11/29 10:28:30;;;;;;;4.72;2.15;;;9.70;96.70;;;;;;4924401;29;20052;-74
2021/11/29 10:31:20;;;;;;;3.78;2.08;;;9.70;96.70;;;;;;4920279;29;20071;-74
2021/11/29 10:34:02;;;;;;;3.90;2.08;;;9.80;96.70;;;;;;4901244;29;20388;-75
2021/11/29 10:36:33;;;;;;;2.63;1.98;;;9.80;96.70;;;;;;4914490;29;20110;-74
2021/11/29 10:39:06;;;;;;;3.13;2.03;;;9.90;96.70;;;;;;4921701;29;20040;-75
2021/11/29 10:41:36;;;;;;;4.13;1.77;;;9.90;96.70;;;;;;4916764;29;20040;-74
2021/11/29 10:44:09;;;;;;;3.55;2.22;;;10.10;96.70;;;;;;4897676;29;20409;-75
2021/11/29 10:46:40;;;;;;;6.03;2.58;;;10.20;96.70;;;;;;4902094;29;20056;-75
2021/11/29 10:49:11;;;;;;;2.13;1.63;;;10.20;96.70;;;;;;4923443;29;20052;-75
2021/11/29 10:51:41;;;;;;;3.58;2.13;;;10.20;96.70;;;;;;4921328;29;20066;-75
2021/11/29 10:54:12;;;;;;;3.78;2.25;;;10.30;96.70;;;;;;4914123;29;20050;-75
2021/11/29 10:56:43;;;;;;;2.42;1.70;;;10.40;96.70;;;;;;4908442;29;20052;-75
2021/11/29 10:59:14;;;;;;;3.17;1.85;;;10.50;96.70;;;;;;4904532;29;20055;-75
2021/11/29 11:01:45;;;;;;;4.47;2.47;;;10.70;96.70;;;;;;4894209;29;20043;-75
2021/11/29 11:04:16;;;;;;;2.97;1.52;;;10.70;96.70;;;;;;4914931;29;20039;-75
2021/11/29 11:06:47;;;;;;;2.35;1.80;;;10.70;96.70;;;;;;4906117;29;20457;-75
2021/11/29 11:09:19;;;;;;;2.15;1.45;;;10.80;96.70;;;;;;4918260;29;20048;-76
2021/11/29 11:11:49;;;;;;;4.13;1.60;;;10.80;96.70;;;;;;4899576;29;20455;-75
2021/11/29 11:14:22;;;;;;;5.05;1.70;;;10.80;96.70;;;;;;4914001;29;20044;-75
2021/11/29 11:16:57;;;;;;;2.50;1.20;;;10.80;96.70;;;;;;4912081;29;20060;-75
2021/11/29 11:19:31;;;;;;;3.47;1.48;;;10.70;96.70;;;;;;4923500;29;20057;-75
2021/11/29 11:22:02;;;;;;;2.58;2.03;;;10.70;96.70;;;;;;4902044;29;20044;-75
2021/11/29 11:24:33;;;;;;;2.30;1.48;;;10.60;96.70;;;;;;4921128;29;20135;-75
2021/11/29 11:27:03;;;;;;;2.05;1.63;;;10.50;96.70;;;;;;4917699;29;20962;-75
2021/11/29 11:29:58;;;;;;;4.07;1.60;;;10.50;96.70;;;;;;4889309;29;20040;-75
2021/11/29 11:32:34;;;;;;;3.50;1.70;;;10.40;96.70;;;;;;4898429;29;20143;-75
2021/11/29 11:35:06;;;;;;;3.92;2.28;;;10.40;96.70;;;;;;4922268;29;20048;-75
2021/11/29 11:37:36;;;;;;;3.20;1.60;;;10.30;96.70;;;;;;4900576;29;20514;-75
2021/11/29 11:40:08;;;;;;;1.52;1.00;;;10.30;96.70;;;;;;4916884;29;20055;-75
2021/11/29 11:42:37;;;;;;;2.35;1.10;;;10.30;96.70;;;;;;4902743;29;20043;-75
2021/11/29 11:45:10;;;;;;;2.10;1.15;;;10.30;96.70;;;;;;4902133;29;20559;-75
2021/11/29 11:47:39;;;;;;;4.55;1.40;;;10.50;96.70;;;;;;4900616;29;20044;-75
2021/11/29 11:50:10;;;;;;;2.65;1.50;;;10.60;96.70;;;;;;4899906;29;20055;-75
2021/11/29 11:52:41;;;;;;;3.47;1.50;;;10.50;96.70;;;;;;4902234;29;20440;-76
2021/11/29 11:55:13;;;;;;;3.67;1.65;;;10.50;96.70;;;;;;4916994;29;20562;-75
2021/11/29 11:57:58;;;;;;;2.30;1.20;;;10.50;96.70;;;;;;4899761;29;20044;-74
2021/11/29 12:00:33;;;;;;;1.58;1.10;;;10.50;96.70;;;;;;4884716;29;20063;-75
2021/11/29 12:03:11;;;;;;;2.53;0.90;;;10.40;96.70;;;;;;4890882;29;20665;-75
2021/11/29 12:05:53;;;;;;;1.60;0.98;;;10.40;96.70;;;;;;4900385;29;20074;-74
2021/11/29 12:08:42;;;;;;;2.72;0.93;;;10.40;96.70;;;;;;4900563;29;20047;-75
2021/11/29 12:11:32;;;;;;;1.67;0.85;;;10.40;96.70;;;;;;4925903;29;20123;-75
2021/11/29 12:14:05;;;;;;;2.38;1.10;;;10.50;96.70;;;;;;4906118;29;20069;-75
2021/11/29 12:16:41;;;;;;;2.85;0.98;;;10.50;96.70;;;;;;4882844;29;20167;-75
2021/11/29 12:19:15;;;;;;;1.42;0.90;;;10.60;96.70;;;;;;4901096;29;20066;-75
2021/11/29 12:21:44;;;;;;;1.80;1.20;;;10.60;96.70;;;;;;4887686;29;20161;-75
2021/11/29 12:24:17;;;;;;;2.47;1.50;;;10.60;96.70;;;;;;4894736;29;20051;-75
2021/11/29 12:27:04;;;;;;;3.05;1.52;;;10.60;96.70;;;;;;4904204;29;20052;-75
2021/11/29 12:29:52;;;;;;;3.30;1.90;;;10.70;96.70;;;;;;4922047;29;20118;-75
2021/11/29 12:32:24;;;;;;;2.17;1.02;;;10.90;96.70;;;;;;4916054;29;20040;-74
2021/11/29 12:34:59;;;;;;;2.03;1.38;;;11.00;96.70;;;;;;4898638;29;20134;-74
2021/11/29 12:37:30;;;;;;;5.03;3.15;;;10.90;96.70;;;;;;4901680;29;20047;-74
2021/11/29 12:40:03;;;;;;;4.85;2.00;;;10.90;96.70;;;;;;4923391;29;20055;-74
2021/11/29 12:42:51;;;;;;;1.27;0.70;;;10.90;96.70;;;;;;4902833;29;20434;-75
2021/11/29 12:45:22;;;;;;;2.50;1.20;;;11.00;96.70;;;;;;4888857;29;20055;-75
2021/11/29 12:47:59;;;;;;;1.42;0.70;;;11.00;96.70;;;;;;4906203;29;20094;-75
2021/11/29 12:50:34;;;;;;;5.20;1.88;;;11.10;96.70;;;;;;4900432;29;20462;-75
2021/11/29 12:53:12;;;;;;;2.22;1.20;;;11.30;96.70;;;;;;4919574;29;20062;-75
2021/11/29 12:55:45;;;;;;;2.60;1.45;;;11.50;96.70;;;;;;4902676;29;20060;-75
2021/11/29 12:58:23;;;;;;;2.10;1.10;;;11.60;96.70;;;;;;4891325;29;20332;-74
2021/11/29 13:01:14;;;;;;;1.63;0.95;;;11.70;96.70;;;;;;4896885;29;20092;-74
2021/11/29 13:03:46;;;;;;;1.67;0.50;;;11.80;96.70;;;;;;4919135;29;20410;-74
2021/11/29 13:06:15;;;;;;;2.10;1.30;;;11.90;96.70;;;;;;4904850;29;20078;-75
2021/11/29 13:08:44;;;;;;;4.20;2.38;;;12.00;96.70;;;;;;4901878;29;20521;-74
2021/11/29 13:11:26;;;;;;;1.75;0.75;;;12.10;96.70;;;;;;4907313;29;20036;-74